sensor_id;sensor_type;location;lat;lon;timestamp;pressure;altitude;pressure_sealevel;temperature;humidity
31096;BME280;17749;51.962;8.560;2024-01-15T06:02:04;98340.81;;;0.39;100.00
31096;BME280;17749;51.962;8.560;2024-01-15T06:04:30;98348.69;;;0.39;100.00
31096;BME280;17749;51.962;8.560;2024-01-15T06:06:58;98338.22;;;0.39;100.00
31096;BME280;17749;51.962;8.560;2024-01-15T06:09:25;98357.50;;;0.35;100.00
31096;BME280;17749;51.962;8.560;2024-01-15T06:11:52;98351.31;;;0.39;100.00
31096;BME280;17749;51.962;8.560;2024-01-15T06:14:19;98353.91;;;0.39;100.00
31096;BME280;17749;51.962;8.560;2024-01-15T06:16:46;98345.16;;;0.40;100.00
31096;BME280;17749;51.962;8.560;2024-01-15T06:19:13;98343.34;;;0.42;100.00
31096;BME280;17749;51.962;8.560;2024-01-15T06:21:40;98343.44;;;0.39;100.00
31096;BME280;17749;51.962;8.560;2024-01-15T06:24:07;98342.63;;;0.37;100.00
31096;BME280;17749;51.962;8.560;2024-01-15T06:26:36;98341.78;;;0.37;100.00
31096;BME280;17749;51.962;8.560;2024-01-15T06:29:03;98343.50;;;0.36;100.00
31096;BME280;17749;51.962;8.560;2024-01-15T06:31:30;98337.41;;;0.36;100.00
31096;BME280;17749;51.962;8.560;2024-01-15T06:33:58;98338.28;;;0.36;100.00
31096;BME280;17749;51.962;8.560;2024-01-15T06:36:25;98342.66;;;0.36;100.00
31096;BME280;17749;51.962;8.560;2024-01-15T06:38:52;98344.38;;;0.37;100.00
31096;BME280;17749;51.962;8.560;2024-01-15T06:41:18;98344.31;;;0.38;100.00
31096;BME280;17749;51.962;8.560;2024-01-15T06:43:45;98342.56;;;0.39;100.00
31096;BME280;17749;51.962;8.560;2024-01-15T06:46:12;98344.25;;;0.41;100.00
31096;BME280;17749;51.962;8.560;2024-01-15T06:48:39;98339.88;;;0.42;100.00
31096;BME280;17749;51.962;8.560;2024-01-15T06:51:06;98339.06;;;0.40;100.00
31096;BME280;17749;51.962;8.560;2024-01-15T06:53:33;98346.78;;;0.44;100.00
31096;BME280;17749;51.962;8.560;2024-01-15T06:56:00;98340.69;;;0.44;100.00
31096;BME280;17749;51.962;8.560;2024-01-15T06:58:27;98341.63;;;0.41;100.00
31096;BME280;17749;51.962;8.560;2024-01-15T07:00:54;98346.09;;;0.38;100.00
31096;BME280;17749;51.962;8.560;2024-01-15T07:03:21;98343.47;;;0.38;100.00
31096;BME280;17749;51.962;8.560;2024-01-15T07:05:48;98351.31;;;0.39;100.00
31096;BME280;17749;51.962;8.560;2024-01-15T07:08:16;98353.91;;;0.39;100.00
31096;BME280;17749;51.962;8.560;2024-01-15T07:10:43;98350.47;;;0.37;100.00
31096;BME280;17749;51.962;8.560;2024-01-15T07:13:10;98353.91;;;0.39;100.00
31096;BME280;17749;51.962;8.560;2024-01-15T07:15:37;98360.09;;;0.37;100.00
31096;BME280;17749;51.962;8.560;2024-01-15T07:18:04;98368.84;;;0.36;100.00
31096;BME280;17749;51.962;8.560;2024-01-15T07:20:31;98364.41;;;0.39;100.00
31096;BME280;17749;51.962;8.560;2024-01-15T07:22:58;98355.59;;;0.42;100.00
31096;BME280;17749;51.962;8.560;2024-01-15T07:25:25;98360.78;;;0.43;100.00
31096;BME280;17749;51.962;8.560;2024-01-15T07:27:53;98366.00;;;0.43;100.00
31096;BME280;17749;51.962;8.560;2024-01-15T07:30:21;98368.59;;;0.45;100.00
31096;BME280;17749;51.962;8.560;2024-01-15T07:32:49;98360.69;;;0.47;100.00
31096;BME280;17749;51.962;8.560;2024-01-15T07:35:16;98360.78;;;0.43;100.00
31096;BME280;17749;51.962;8.560;2024-01-15T07:37:43;98358.97;;;0.46;100.00
31096;BME280;17749;51.962;8.560;2024-01-15T07:40:11;98365.06;;;0.46;100.00
31096;BME280;17749;51.962;8.560;2024-01-15T07:42:39;98360.78;;;0.43;100.00
31096;BME280;17749;51.962;8.560;2024-01-15T07:45:06;98359.16;;;0.39;100.00
31096;BME280;17749;51.962;8.560;2024-01-15T07:47:32;98359.94;;;0.41;100.00
31096;BME280;17749;51.962;8.560;2024-01-15T07:50:00;98360.78;;;0.43;100.00
31096;BME280;17749;51.962;8.560;2024-01-15T07:52:32;98361.78;;;0.39;100.00
31096;BME280;17749;51.962;8.560;2024-01-15T07:54:59;98360.94;;;0.37;100.00
31096;BME280;17749;51.962;8.560;2024-01-15T07:57:27;98366.09;;;0.40;100.00
31096;BME280;17749;51.962;8.560;2024-01-15T07:59:54;98366.09;;;0.40;100.00
31096;BME280;17749;51.962;8.560;2024-01-15T08:02:21;98373.97;;;0.40;100.00
31096;BME280;17749;51.962;8.560;2024-01-15T08:04:48;98372.97;;;0.44;100.00
31096;BME280;17749;51.962;8.560;2024-01-15T08:07:15;98373.94;;;0.42;100.00
31096;BME280;17749;51.962;8.560;2024-01-15T08:09:42;98378.34;;;0.40;100.00
31096;BME280;17749;51.962;8.560;2024-01-15T08:12:10;98375.75;;;0.38;100.00
31096;BME280;17749;51.962;8.560;2024-01-15T08:14:37;98375.75;;;0.38;100.00
31096;BME280;17749;51.962;8.560;2024-01-15T08:17:04;98376.56;;;0.40;100.00
31096;BME280;17749;51.962;8.560;2024-01-15T08:19:31;98370.44;;;0.41;100.00
31096;BME280;17749;51.962;8.560;2024-01-15T08:21:58;98375.81;;;0.37;100.00
31096;BME280;17749;51.962;8.560;2024-01-15T08:24:25;98375.75;;;0.38;100.00
31096;BME280;17749;51.962;8.560;2024-01-15T08:26:52;98378.28;;;0.41;100.00
31096;BME280;17749;51.962;8.560;2024-01-15T08:29:19;98373.13;;;0.38;100.00
31096;BME280;17749;51.962;8.560;2024-01-15T08:31:48;98367.72;;;0.44;100.00
31096;BME280;17749;51.962;8.560;2024-01-15T08:34:15;98368.59;;;0.45;100.00
31096;BME280;17749;51.962;8.560;2024-01-15T08:36:42;98366.00;;;0.43;100.00
31096;BME280;17749;51.962;8.560;2024-01-15T08:39:09;98367.81;;;0.41;100.00
31096;BME280;17749;51.962;8.560;2024-01-15T08:41:36;98357.41;;;0.38;100.00
31096;BME280;17749;51.962;8.560;2024-01-15T08:44:03;98366.09;;;0.40;100.00
31096;BME280;17749;51.962;8.560;2024-01-15T08:46:30;98362.72;;;0.37;100.00
31096;BME280;17749;51.962;8.560;2024-01-15T08:48:57;98367.13;;;0.35;100.00
31096;BME280;17749;51.962;8.560;2024-01-15T08:51:24;98367.13;;;0.35;100.00
31096;BME280;17749;51.962;8.560;2024-01-15T08:53:51;98362.75;;;0.35;100.00
31096;BME280;17749;51.962;8.560;2024-01-15T08:56:18;98372.31;;;0.36;100.00
31096;BME280;17749;51.962;8.560;2024-01-15T08:58:45;98366.19;;;0.37;100.00
31096;BME280;17749;51.962;8.560;2024-01-15T09:01:13;98371.44;;;0.37;100.00
31096;BME280;17749;51.962;8.560;2024-01-15T09:03:40;98369.69;;;0.36;100.00
31096;BME280;17749;51.962;8.560;2024-01-15T09:06:10;98362.66;;;0.38;100.00
31096;BME280;17749;51.962;8.560;2024-01-15T09:08:37;98365.25;;;0.40;100.00
31096;BME280;17749;51.962;8.560;2024-01-15T09:11:04;98369.63;;;0.39;100.00
31096;BME280;17749;51.962;8.560;2024-01-15T09:13:31;98373.03;;;0.41;100.00
31096;BME280;17749;51.962;8.560;2024-01-15T09:15:59;98369.53;;;0.42;100.00
31096;BME280;17749;51.962;8.560;2024-01-15T09:18:27;98379.22;;;0.39;100.00
31096;BME280;17749;51.962;8.560;2024-01-15T09:20:54;98373.13;;;0.38;100.00
31096;BME280;17749;51.962;8.560;2024-01-15T09:23:21;98374.88;;;0.39;100.00
31096;BME280;17749;51.962;8.560;2024-01-15T09:25:48;98369.53;;;0.42;100.00
31096;BME280;17749;51.962;8.560;2024-01-15T09:28:16;98372.91;;;0.48;100.00
31096;BME280;17749;51.962;8.560;2024-01-15T09:30:43;98373.69;;;0.50;100.00
31096;BME280;17749;51.962;8.560;2024-01-15T09:33:12;98369.38;;;0.49;100.00
31096;BME280;17749;51.962;8.560;2024-01-15T09:35:39;98367.59;;;0.49;100.00
31096;BME280;17749;51.962;8.560;2024-01-15T09:38:06;98366.72;;;0.50;100.00
31096;BME280;17749;51.962;8.560;2024-01-15T09:40:33;98369.28;;;0.52;100.00
31096;BME280;17749;51.962;8.560;2024-01-15T09:43:01;98368.47;;;0.50;100.00
31096;BME280;17749;51.962;8.560;2024-01-15T09:45:31;98359.81;;;0.48;100.00
31096;BME280;17749;51.962;8.560;2024-01-15T09:47:58;98362.47;;;0.44;100.00
31096;BME280;17749;51.962;8.560;2024-01-15T09:50:25;98363.31;;;0.47;100.00
31096;BME280;17749;51.962;8.560;2024-01-15T09:52:54;98365.84;;;0.50;100.00
31096;BME280;17749;51.962;8.560;2024-01-15T09:55:21;98362.25;;;0.54;100.00
31096;BME280;17749;51.962;8.560;2024-01-15T09:57:49;98376.25;;;0.53;100.00
31096;BME280;17749;51.962;8.560;2024-01-15T10:00:17;98371.88;;;0.53;100.00
31096;BME280;17749;51.962;8.560;2024-01-15T10:02:45;98370.84;;;0.59;100.00
31096;BME280;17749;51.962;8.560;2024-01-15T10:05:12;98361.22;;;0.59;100.00
31096;BME280;17749;51.962;8.560;2024-01-15T10:07:40;98361.09;;;0.64;100.00
31096;BME280;17749;51.962;8.560;2024-01-15T10:10:07;98364.53;;;0.66;100.00
31096;BME280;17749;51.962;8.560;2024-01-15T10:12:34;98361.00;;;0.67;100.00
31096;BME280;17749;51.962;8.560;2024-01-15T10:15:01;98360.16;;;0.67;100.00
31096;BME280;17749;51.962;8.560;2024-01-15T10:17:28;98361.81;;;0.69;100.00
31096;BME280;17749;51.962;8.560;2024-01-15T10:19:57;98367.91;;;0.70;100.00
31096;BME280;17749;51.962;8.560;2024-01-15T10:22:25;98356.59;;;0.69;100.00
31096;BME280;17749;51.962;8.560;2024-01-15T10:24:52;98360.09;;;0.68;100.00
31096;BME280;17749;51.962;8.560;2024-01-15T10:27:20;98360.09;;;0.68;100.00
31096;BME280;17749;51.962;8.560;2024-01-15T10:29:47;98354.00;;;0.68;100.00
31096;BME280;17749;51.962;8.560;2024-01-15T10:32:14;98355.84;;;0.64;100.00
31096;BME280;17749;51.962;8.560;2024-01-15T10:34:41;98349.88;;;0.59;100.00
31096;BME280;17749;51.962;8.560;2024-01-15T10:37:10;98356.78;;;0.63;100.00
31096;BME280;17749;51.962;8.560;2024-01-15T10:39:37;98355.81;;;0.65;100.00
31096;BME280;17749;51.962;8.560;2024-01-15T10:42:05;98349.59;;;0.68;100.00
31096;BME280;17749;51.962;8.560;2024-01-15T10:44:34;98337.34;;;0.70;100.00
31096;BME280;17749;51.962;8.560;2024-01-15T10:47:01;98342.41;;;0.76;100.00
31096;BME280;17749;51.962;8.560;2024-01-15T10:49:28;98342.13;;;0.85;100.00
31096;BME280;17749;51.962;8.560;2024-01-15T10:52:01;98336.72;;;0.92;100.00
31096;BME280;17749;51.962;8.560;2024-01-15T10:54:29;98338.63;;;0.86;100.00
31096;BME280;17749;51.962;8.560;2024-01-15T10:56:57;98341.25;;;0.86;100.00
31096;BME280;17749;51.962;8.560;2024-01-15T10:59:24;98337.59;;;0.92;100.00
31096;BME280;17749;51.962;8.560;2024-01-15T11:01:52;98338.69;;;0.83;100.00
31096;BME280;17749;51.962;8.560;2024-01-15T11:04:22;98329.16;;;0.81;100.00
31096;BME280;17749;51.962;8.560;2024-01-15T11:06:53;98329.16;;;0.81;100.00
31096;BME280;17749;51.962;8.560;2024-01-15T11:09:23;98326.59;;;0.79;100.00
31096;BME280;17749;51.962;8.560;2024-01-15T11:12:07;98332.56;;;0.84;100.00
31096;BME280;17749;51.962;8.560;2024-01-15T11:14:46;98328.94;;;0.88;100.00
31096;BME280;17749;51.962;8.560;2024-01-15T11:17:15;98326.28;;;0.90;100.00
31096;BME280;17749;51.962;8.560;2024-01-15T11:19:42;98331.56;;;0.88;100.00
31096;BME280;17749;51.962;8.560;2024-01-15T11:25:18;98325.38;;;0.91;100.00
31096;BME280;17749;51.962;8.560;2024-01-15T11:27:46;98322.72;;;0.93;100.00
31096;BME280;17749;51.962;8.560;2024-01-15T11:30:20;98320.13;;;0.91;100.00
31096;BME280;17749;51.962;8.560;2024-01-15T11:32:52;98323.66;;;0.90;100.00
31096;BME280;17749;51.962;8.560;2024-01-15T11:35:19;98322.91;;;0.86;100.00
31096;BME280;17749;51.962;8.560;2024-01-15T11:43:03;98325.47;;;0.88;100.00
31096;BME280;17749;51.962;8.560;2024-01-15T11:45:31;98320.19;;;0.90;100.00
31096;BME280;17749;51.962;8.560;2024-01-15T11:48:14;98315.50;;;0.99;100.00
31096;BME280;17749;51.962;8.560;2024-01-15T11:50:48;98318.84;;;1.04;100.00
31096;BME280;17749;51.962;8.560;2024-01-15T11:53:43;98317.16;;;1.03;100.00
31096;BME280;17749;51.962;8.560;2024-01-15T11:56:14;98310.13;;;1.04;100.00
31096;BME280;17749;51.962;8.560;2024-01-15T11:58:43;98307.31;;;1.10;100.00
31096;BME280;17749;51.962;8.560;2024-01-15T12:01:11;98309.94;;;1.10;100.00
31096;BME280;17749;51.962;8.560;2024-01-15T12:03:38;98318.00;;;1.04;100.00
31096;BME280;17749;51.962;8.560;2024-01-15T12:06:06;98318.00;;;1.04;100.00
31096;BME280;17749;51.962;8.560;2024-01-15T12:08:34;98313.78;;;1.00;100.00
31096;BME280;17749;51.962;8.560;2024-01-15T12:11:10;98311.19;;;0.98;100.00
31096;BME280;17749;51.962;8.560;2024-01-15T12:13:40;98319.03;;;1.00;100.00
31096;BME280;17749;51.962;8.560;2024-01-15T12:16:07;98323.56;;;0.93;100.00
31096;BME280;17749;51.962;8.560;2024-01-15T12:18:35;98315.75;;;0.92;100.00
31096;BME280;17749;51.962;8.560;2024-01-15T12:21:03;98320.19;;;0.90;100.00
31096;BME280;17749;51.962;8.560;2024-01-15T12:23:31;98321.94;;;0.89;100.00
31096;BME280;17749;51.962;8.560;2024-01-15T12:25:58;98317.56;;;0.90;100.00
31096;BME280;17749;51.962;8.560;2024-01-15T12:28:27;98320.94;;;0.93;100.00
31096;BME280;17749;51.962;8.560;2024-01-15T12:30:55;98321.88;;;0.92;100.00
31096;BME280;17749;51.962;8.560;2024-01-15T12:33:22;98318.19;;;0.98;100.00
31096;BME280;17749;51.962;8.560;2024-01-15T12:35:53;98316.34;;;1.01;100.00
31096;BME280;17749;51.962;8.560;2024-01-15T12:38:20;98319.09;;;0.97;100.00
31096;BME280;17749;51.962;8.560;2024-01-15T12:40:48;98314.53;;;1.03;100.00
31096;BME280;17749;51.962;8.560;2024-01-15T12:43:18;98315.47;;;1.01;100.00
31096;BME280;17749;51.962;8.560;2024-01-15T12:45:45;98316.19;;;1.06;100.00
31096;BME280;17749;51.962;8.560;2024-01-15T12:48:13;98307.41;;;1.07;100.00
31096;BME280;17749;51.962;8.560;2024-01-15T12:50:42;98306.53;;;1.08;100.00
31096;BME280;17749;51.962;8.560;2024-01-15T12:53:09;98323.31;;;1.02;100.00
31096;BME280;17749;51.962;8.560;2024-01-15T12:55:36;98319.09;;;0.97;100.00
31096;BME280;17749;51.962;8.560;2024-01-15T12:58:03;98319.19;;;0.94;100.00
31096;BME280;17749;51.962;8.560;2024-01-15T13:00:30;98317.47;;;0.93;100.00
31096;BME280;17749;51.962;8.560;2024-01-15T13:02:58;98319.91;;;0.99;100.00
31096;BME280;17749;51.962;8.560;2024-01-15T13:05:27;98319.03;;;1.00;100.00
31096;BME280;17749;51.962;8.560;2024-01-15T13:07:55;98314.66;;;0.99;100.00
31096;BME280;17749;51.962;8.560;2024-01-15T13:10:22;98308.34;;;1.06;100.00
31096;BME280;17749;51.962;8.560;2024-01-15T13:12:52;98313.47;;;1.09;100.00
31096;BME280;17749;51.962;8.560;2024-01-15T13:15:19;98318.72;;;1.09;100.00
31096;BME280;17749;51.962;8.560;2024-01-15T13:17:46;98320.63;;;1.04;100.00
31096;BME280;17749;51.962;8.560;2024-01-15T13:20:14;98315.47;;;1.01;100.00
31096;BME280;17749;51.962;8.560;2024-01-15T13:22:41;98320.72;;;1.01;100.00
31096;BME280;17749;51.962;8.560;2024-01-15T13:25:11;98322.72;;;0.93;100.00
31096;BME280;17749;51.962;8.560;2024-01-15T13:27:38;98314.84;;;0.93;100.00
31096;BME280;17749;51.962;8.560;2024-01-15T13:30:08;98315.75;;;0.92;100.00
31096;BME280;17749;51.962;8.560;2024-01-15T13:32:35;98316.69;;;0.89;100.00
31096;BME280;17749;51.962;8.560;2024-01-15T13:35:03;98314.94;;;0.90;100.00
31096;BME280;17749;51.962;8.560;2024-01-15T13:37:33;98324.53;;;0.91;100.00
31096;BME280;17749;51.962;8.560;2024-01-15T13:40:00;98321.94;;;0.89;100.00
31096;BME280;17749;51.962;8.560;2024-01-15T13:42:27;98320.28;;;0.86;100.00
31096;BME280;17749;51.962;8.560;2024-01-15T13:44:55;98315.84;;;0.88;100.00
31096;BME280;17749;51.962;8.560;2024-01-15T13:47:22;98322.72;;;0.93;100.00
31096;BME280;17749;51.962;8.560;2024-01-15T13:49:50;98320.91;;;0.95;100.00
31096;BME280;17749;51.962;8.560;2024-01-15T13:52:17;98324.44;;;0.94;100.00
31096;BME280;17749;51.962;8.560;2024-01-15T13:54:44;98328.69;;;0.98;100.00
31096;BME280;17749;51.962;8.560;2024-01-15T13:57:17;98329.56;;;0.97;100.00
31096;BME280;17749;51.962;8.560;2024-01-15T13:59:45;98329.75;;;0.91;100.00
31096;BME280;17749;51.962;8.560;2024-01-15T14:02:13;98328.00;;;0.91;100.00
31096;BME280;17749;51.962;8.560;2024-01-15T14:04:46;98331.47;;;0.92;100.00
31096;BME280;17749;51.962;8.560;2024-01-15T14:07:14;98336.91;;;0.85;100.00
31096;BME280;17749;51.962;8.560;2024-01-15T14:09:42;98336.16;;;0.80;100.00
31096;BME280;17749;51.962;8.560;2024-01-15T14:12:10;98336.25;;;0.77;100.00
31096;BME280;17749;51.962;8.560;2024-01-15T14:14:36;98338.88;;;0.77;100.00
31096;BME280;17749;51.962;8.560;2024-01-15T14:17:03;98335.28;;;0.81;100.00
31096;BME280;17749;51.962;8.560;2024-01-15T14:19:30;98330.19;;;0.75;100.00
31096;BME280;17749;51.962;8.560;2024-01-15T14:21:57;98329.53;;;0.69;100.00
31096;BME280;17749;51.962;8.560;2024-01-15T14:24:25;98335.44;;;0.75;100.00
31096;BME280;17749;51.962;8.560;2024-01-15T14:26:52;98326.69;;;0.76;100.00
31096;BME280;17749;51.962;8.560;2024-01-15T14:29:19;98340.66;;;0.77;100.00
31096;BME280;17749;51.962;8.560;2024-01-15T14:31:47;98350.31;;;0.75;100.00
31096;BME280;17749;51.962;8.560;2024-01-15T14:34:17;98337.31;;;0.72;100.00
31096;BME280;17749;51.962;8.560;2024-01-15T14:36:45;98345.81;;;0.78;100.00
31096;BME280;17749;51.962;8.560;2024-01-15T14:39:13;98349.19;;;0.83;100.00
31096;BME280;17749;51.962;8.560;2024-01-15T14:41:40;98344.03;;;0.80;100.00
31096;BME280;17749;51.962;8.560;2024-01-15T14:44:07;98347.66;;;0.76;100.00
31096;BME280;17749;51.962;8.560;2024-01-15T14:46:48;98361.66;;;0.75;100.00
31096;BME280;17749;51.962;8.560;2024-01-15T14:49:21;98364.34;;;0.72;100.00
31096;BME280;17749;51.962;8.560;2024-01-15T14:51:48;98367.06;;;0.69;100.00
31096;BME280;17749;51.962;8.560;2024-01-15T14:54:17;98359.25;;;0.68;100.00
31096;BME280;17749;51.962;8.560;2024-01-15T14:56:46;98372.50;;;0.63;100.00
31096;BME280;17749;51.962;8.560;2024-01-15T14:59:13;98379.63;;;0.58;100.00
31096;BME280;17749;51.962;8.560;2024-01-15T15:01:41;98386.88;;;0.47;100.00
31096;BME280;17749;51.962;8.560;2024-01-15T15:04:09;98397.44;;;0.43;100.00
31096;BME280;17749;51.962;8.560;2024-01-15T15:06:38;98406.22;;;0.42;100.00
31096;BME280;17749;51.962;8.560;2024-01-15T15:09:05;98406.28;;;0.39;100.00
31096;BME280;17749;51.962;8.560;2024-01-15T15:11:56;98411.34;;;0.46;100.00
31096;BME280;17749;51.962;8.560;2024-01-15T15:14:23;98420.09;;;0.44;100.00
31096;BME280;17749;51.962;8.560;2024-01-15T15:16:51;98426.22;;;0.45;100.00
31096;BME280;17749;51.962;8.560;2024-01-15T15:19:19;98428.00;;;0.43;100.00
31096;BME280;17749;51.962;8.560;2024-01-15T15:21:47;98447.09;;;0.47;100.00
31096;BME280;17749;51.962;8.560;2024-01-15T15:24:15;98443.63;;;0.48;100.00
31096;BME280;17749;51.962;8.560;2024-01-15T15:26:43;98451.47;;;0.48;100.00
31096;BME280;17749;51.962;8.560;2024-01-15T15:29:11;98449.72;;;0.47;100.00
31096;BME280;17749;51.962;8.560;2024-01-15T15:31:40;98462.00;;;0.44;100.00
31096;BME280;17749;51.962;8.560;2024-01-15T15:34:11;98466.34;;;0.46;100.00
31096;BME280;17749;51.962;8.560;2024-01-15T15:36:41;98465.53;;;0.43;100.00
31096;BME280;17749;51.962;8.560;2024-01-15T15:39:12;98479.44;;;0.46;100.00
31096;BME280;17749;51.962;8.560;2024-01-15T15:41:45;98482.00;;;0.47;100.00
31096;BME280;17749;51.962;8.560;2024-01-15T15:44:13;98488.19;;;0.44;100.00
31096;BME280;17749;51.962;8.560;2024-01-15T15:47:10;98500.22;;;0.52;100.00
31096;BME280;17749;51.962;8.560;2024-01-15T15:50:20;98495.84;;;0.52;100.00
31096;BME280;17749;51.962;8.560;2024-01-15T15:56:58;98519.47;;;0.51;100.00
31096;BME280;17749;51.962;8.560;2024-01-15T15:59:25;98524.78;;;0.48;100.00
31096;BME280;17749;51.962;8.560;2024-01-15T16:01:52;98535.19;;;0.51;100.00
31096;BME280;17749;51.962;8.560;2024-01-15T16:04:19;98539.53;;;0.52;100.00
31096;BME280;17749;51.962;8.560;2024-01-15T16:06:46;98536.97;;;0.49;100.00
31096;BME280;17749;51.962;8.560;2024-01-15T16:09:17;98540.50;;;0.48;100.00
31096;BME280;17749;51.962;8.560;2024-01-15T16:11:44;98550.91;;;0.51;100.00
31096;BME280;17749;51.962;8.560;2024-01-15T16:14:11;98553.63;;;0.46;100.00
31096;BME280;17749;51.962;8.560;2024-01-15T16:16:38;98547.47;;;0.49;100.00
31096;BME280;17749;51.962;8.560;2024-01-15T16:19:25;98550.91;;;0.51;100.00
31096;BME280;17749;51.962;8.560;2024-01-15T16:22:12;98556.16;;;0.51;100.00
31096;BME280;17749;51.962;8.560;2024-01-15T16:24:59;98564.84;;;0.53;100.00
31096;BME280;17749;51.962;8.560;2024-01-15T16:27:30;98560.53;;;0.50;100.00
31096;BME280;17749;51.962;8.560;2024-01-15T16:29:57;98568.34;;;0.52;100.00
31096;BME280;17749;51.962;8.560;2024-01-15T16:32:24;98569.16;;;0.54;100.00
31096;BME280;17749;51.962;8.560;2024-01-15T16:34:51;98568.34;;;0.52;100.00
31096;BME280;17749;51.962;8.560;2024-01-15T16:37:19;98578.78;;;0.53;100.00
31096;BME280;17749;51.962;8.560;2024-01-15T16:39:46;98582.34;;;0.51;100.00
31096;BME280;17749;51.962;8.560;2024-01-15T16:42:13;98586.00;;;0.43;100.00
31096;BME280;17749;51.962;8.560;2024-01-15T16:44:40;98584.22;;;0.44;100.00
31096;BME280;17749;51.962;8.560;2024-01-15T16:47:07;98592.91;;;0.48;100.00
31096;BME280;17749;51.962;8.560;2024-01-15T16:49:35;98587.66;;;0.48;100.00
31096;BME280;17749;51.962;8.560;2024-01-15T16:52:02;98594.69;;;0.46;100.00
31096;BME280;17749;51.962;8.560;2024-01-15T16:54:34;98596.31;;;0.50;100.00
31096;BME280;17749;51.962;8.560;2024-01-15T16:57:01;98591.16;;;0.47;100.00
31096;BME280;17749;51.962;8.560;2024-01-15T16:59:29;98591.22;;;0.43;100.00
31096;BME280;17749;51.962;8.560;2024-01-15T17:01:57;98603.50;;;0.41;100.00
31096;BME280;17749;51.962;8.560;2024-01-15T17:04:24;98599.09;;;0.43;100.00
31096;BME280;17749;51.962;8.560;2024-01-15T17:06:51;98609.56;;;0.43;100.00
31096;BME280;17749;51.962;8.560;2024-01-15T17:09:18;98609.53;;;0.45;100.00
31096;BME280;17749;51.962;8.560;2024-01-15T17:11:45;98614.78;;;0.45;100.00
31096;BME280;17749;51.962;8.560;2024-01-15T17:14:12;98610.41;;;0.46;100.00
31096;BME280;17749;51.962;8.560;2024-01-15T17:16:39;98612.25;;;0.40;100.00
31096;BME280;17749;51.962;8.560;2024-01-15T17:19:06;98610.53;;;0.39;100.00
31096;BME280;17749;51.962;8.560;2024-01-15T17:21:33;98622.72;;;0.40;100.00
31096;BME280;17749;51.962;8.560;2024-01-15T17:24:00;98620.19;;;0.37;100.00
31096;BME280;17749;51.962;8.560;2024-01-15T17:26:27;98618.41;;;0.38;100.00
31096;BME280;17749;51.962;8.560;2024-01-15T17:28:55;98641.22;;;0.34;100.00
31096;BME280;17749;51.962;8.560;2024-01-15T17:31:22;98638.59;;;0.34;100.00
31096;BME280;17749;51.962;8.560;2024-01-15T17:33:50;98640.31;;;0.35;100.00
31096;BME280;17749;51.962;8.560;2024-01-15T17:36:17;98648.22;;;0.32;100.00
31096;BME280;17749;51.962;8.560;2024-01-15T17:38:44;98650.91;;;0.29;100.00
31096;BME280;17749;51.962;8.560;2024-01-15T17:41:11;98671.72;;;0.35;100.00
31096;BME280;17749;51.962;8.560;2024-01-15T17:43:39;98646.63;;;0.25;100.00
31096;BME280;17749;51.962;8.560;2024-01-15T17:46:07;98651.88;;;0.25;100.00
31096;BME280;17749;51.962;8.560;2024-01-15T17:48:34;98665.72;;;0.30;100.00
31096;BME280;17749;51.962;8.560;2024-01-15T17:51:02;98669.13;;;0.34;100.00
31096;BME280;17749;51.962;8.560;2024-01-15T17:53:29;98671.72;;;0.35;100.00
31096;BME280;17749;51.962;8.560;2024-01-15T17:55:57;98672.56;;;0.36;100.00
31096;BME280;17749;51.962;8.560;2024-01-15T17:58:24;98670.06;;;0.31;100.00
31096;BME280;17749;51.962;8.560;2024-01-15T18:00:50;98664.81;;;0.31;100.00
31096;BME280;17749;51.962;8.560;2024-01-15T18:03:17;98653.47;;;0.32;100.00
31096;BME280;17749;51.962;8.560;2024-01-15T18:05:44;98656.97;;;0.31;100.00
31096;BME280;17749;51.962;8.560;2024-01-15T18:08:11;98660.47;;;0.32;100.00
31096;BME280;17749;51.962;8.560;2024-01-15T18:10:39;98667.41;;;0.34;100.00
31096;BME280;17749;51.962;8.560;2024-01-15T18:13:06;98664.81;;;0.31;100.00
31096;BME280;17749;51.962;8.560;2024-01-15T18:15:34;98660.50;;;0.30;100.00
31096;BME280;17749;51.962;8.560;2024-01-15T18:18:01;98663.09;;;0.30;100.00
31096;BME280;17749;51.962;8.560;2024-01-15T18:20:28;98658.00;;;0.24;100.00
31096;BME280;17749;51.962;8.560;2024-01-15T18:22:55;98659.72;;;0.25;100.00
31096;BME280;17749;51.962;8.560;2024-01-15T18:25:23;98665.75;;;0.29;100.00
31096;BME280;17749;51.962;8.560;2024-01-15T18:27:50;98672.78;;;0.27;100.00
31096;BME280;17749;51.962;8.560;2024-01-15T18:30:18;98673.72;;;0.24;100.00
31096;BME280;17749;51.962;8.560;2024-01-15T18:32:45;98669.34;;;0.23;100.00
31096;BME280;17749;51.962;8.560;2024-01-15T18:35:12;98670.41;;;0.16;100.00
31096;BME280;17749;51.962;8.560;2024-01-15T18:37:40;98683.38;;;0.20;100.00
31096;BME280;17749;51.962;8.560;2024-01-15T18:40:08;98681.69;;;0.18;100.00
31096;BME280;17749;51.962;8.560;2024-01-15T18:42:37;98693.75;;;0.25;100.00
31096;BME280;17749;51.962;8.560;2024-01-15T18:45:04;98694.66;;;0.24;100.00
31096;BME280;17749;51.962;8.560;2024-01-15T18:47:32;98687.66;;;0.25;100.00
31096;BME280;17749;51.962;8.560;2024-01-15T18:49:59;98701.63;;;0.25;100.00
31096;BME280;17749;51.962;8.560;2024-01-15T18:52:29;98694.66;;;0.24;100.00
31096;BME280;17749;51.962;8.560;2024-01-15T18:54:56;98705.16;;;0.22;100.00
31096;BME280;17749;51.962;8.560;2024-01-15T18:57:23;98712.16;;;0.22;100.00
31096;BME280;17749;51.962;8.560;2024-01-15T18:59:50;98707.81;;;0.21;100.00
31096;BME280;17749;51.962;8.560;2024-01-15T19:02:18;98721.84;;;0.17;100.00
31096;BME280;17749;51.962;8.560;2024-01-15T19:04:45;98721.00;;;0.16;100.00
31096;BME280;17749;51.962;8.560;2024-01-15T19:07:12;98723.56;;;0.18;100.00
31096;BME280;17749;51.962;8.560;2024-01-15T19:09:39;98731.50;;;0.15;100.00
31096;BME280;17749;51.962;8.560;2024-01-15T19:12:06;98733.31;;;0.11;100.00
31096;BME280;17749;51.962;8.560;2024-01-15T19:14:34;98741.97;;;0.15;100.00
31096;BME280;17749;51.962;8.560;2024-01-15T19:17:01;98730.69;;;0.11;100.00
31096;BME280;17749;51.962;8.560;2024-01-15T19:19:28;98735.94;;;0.11;100.00